| Date | Time | Temp. (oF) | Dew Point (oF) | Rel. Hum. (%) | Press. (in.) | Wind Dir. | Wind Speed (mph) | Hourly Rainfall (in.) |
|
|---|---|---|---|---|---|---|---|---|---|
| 1 | 05/17 | 00:00 | 66 | 65 | 98 | 29.87 | SW | 5 | 0.00 |
| 2 | 05/16 | 23:00 | 67 | 65 | 96 | 29.87 | SSW | 6 | 0.13 |
| 3 | 05/16 | 22:00 | 70 | 67 | 92 | 29.88 | SSW | 8 | 0.00 |
| 4 | miss | miss | miss | miss | miss | miss | miss | miss | |
| 5 | 05/16 | 21:59 | 70 | 67 | 93 | 29.88 | SSW | 12 | 0.08 |
| 6 | 05/16 | 21:58 | 70 | 67 | 93 | 29.88 | SW | 9 | 0.08 |
| 7 | 05/16 | 21:57 | 70 | 68 | 94 | 29.88 | SSW | 9 | 0.08 |
| 8 | 05/16 | 21:55 | 70 | 68 | 94 | 29.88 | SSW | 16 | 0.00 |
| 9 | miss | miss | miss | miss | miss | miss | miss | miss | |
| 10 | 05/16 | 21:53 | 71 | 69 | 95 | 29.88 | SSW | 11 | 0.07 |
| 11 | miss | miss | miss | miss | miss | miss | miss | miss | |
| 12 | 05/16 | 21:51 | 71 | 69 | 95 | 29.88 | WSW | 7 | 0.07 |
| 13 | miss | miss | miss | miss | miss | miss | miss | miss | |
| 14 | 05/16 | 21:48 | 71 | 69 | 95 | 29.87 | SW | 7 | 0.06 |
| 15 | miss | miss | miss | miss | miss | miss | miss | miss | |
| 16 | 05/16 | 21:46 | 71 | 69 | 95 | 29.87 | SW | 5 | 0.06 |
| 17 | miss | miss | miss | miss | miss | miss | miss | miss | |
| 18 | 05/16 | 21:42 | 71 | 69 | 94 | 29.87 | SSW | 6 | 0.05 |
| 19 | miss | miss | miss | miss | miss | miss | miss | miss | |
| 20 | 05/16 | 21:40 | 71 | 69 | 94 | 29.87 | SW | 7 | 0.05 |
| 21 | miss | miss | miss | miss | miss | miss | miss | miss | |
| 22 | 05/16 | 21:37 | 71 | 68 | 93 | 29.87 | SSW | 9 | 0.04 |
| 23 | miss | miss | miss | miss | miss | miss | miss | miss | |
| 24 | 05/16 | 21:34 | 71 | 68 | 93 | 29.87 | SSW | 8 | 0.04 |
| 25 | miss | miss | miss | miss | miss | miss | miss | miss | |
| 26 | 05/16 | 21:32 | 71 | 68 | 93 | 29.87 | SSW | 5 | 0.03 |
| 27 | miss | miss | miss | miss | miss | miss | miss | miss | |
| 28 | 05/16 | 21:00 | 73 | 68 | 86 | 29.87 | SW | 5 | 0.00 |
| 29 | 05/16 | 20:00 | 74 | 69 | 85 | 29.86 | SW | 4 | 0.00 |
| 30 | 05/16 | 19:00 | 74 | 68 | 83 | 29.87 | SSW | 7 | 0.00 |
| 31 | 05/16 | 18:00 | 75 | 68 | 81 | 29.87 | SSW | 5 | 0.00 |
| 32 | 05/16 | 17:00 | 75 | 68 | 80 | 29.88 | SSW | 9 | 0.00 |
| 33 | 05/16 | 16:00 | 75 | 68 | 80 | 29.91 | SSW | 7 | 0.00 |
| 34 | 05/16 | 15:00 | 72 | 67 | 86 | 29.96 | SSW | 11 | 0.00 |
| 35 | 05/16 | 14:00 | 71 | 67 | 90 | 29.99 | SW | 10 | 0.00 |
| 36 | 05/16 | 13:00 | 71 | 67 | 89 | 30.02 | SW | 13 | 0.00 |
| 37 | 05/16 | 12:00 | 71 | 67 | 88 | 30.03 | SSW | 17 | 0.00 |
| 38 | 05/16 | 11:00 | 73 | 68 | 87 | 30.04 | SSW | 6 | 0.00 |
| 39 | 05/16 | 10:00 | 71 | 67 | 90 | 30.06 | S | 4 | 0.00 |
| 40 | 05/16 | 09:00 | 69 | 67 | 95 | 30.09 | S | 3 | 0.00 |
| 41 | 05/16 | 08:00 | 68 | 67 | 99 | 30.10 | SSE | 2 | 0.00 |
| 42 | 05/16 | 07:00 | 66 | 66 | 100 | 30.11 | S | 5 | 0.00 |
| 43 | 05/16 | 06:00 | 65 | 64 | 100 | 30.10 | SSE | 1 | 0.00 |
| 44 | 05/16 | 05:00 | 65 | 64 | 100 | 30.11 | SSW | 2 | 0.00 |
| 45 | 05/16 | 04:00 | 64 | 63 | 99 | 30.10 | SE | 0 | 0.00 |
| 46 | 05/16 | 03:00 | 64 | 63 | 97 | 30.11 | ESE | 0 | 0.00 |
| 47 | 05/16 | 02:00 | 65 | 63 | 96 | 30.13 | SE | 0 | 0.00 |
| 48 | 05/16 | 01:00 | 66 | 64 | 94 | 30.14 | S | 0 | 0.00 |
| 49 | 05/16 | 00:00 | 66 | 62 | 89 | 30.15 | S | 0 | -0.21 |
| 50 | 05/15 | 23:00 | 67 | 61 | 82 | 30.17 | SE | 0 | 0.00 |
| 51 | 05/15 | 22:00 | 68 | 59 | 74 | 30.17 | S | 0 | 0.00 |
| 52 | 05/15 | 21:00 | 70 | 58 | 66 | 30.16 | S | 0 | 0.00 |
| 53 | 05/15 | 20:00 | 74 | 57 | 56 | 30.15 | E | 0 | 0.00 |
| 54 | 05/15 | 19:00 | 78 | 58 | 51 | 30.13 | E | 0 | 0.00 |
| 55 | 05/15 | 18:00 | 79 | 58 | 50 | 30.13 | ESE | 0 | 0.00 |
| 56 | 05/15 | 17:00 | 79 | 56 | 47 | 30.16 | SE | 2 | 0.00 |
| 57 | 05/15 | 16:00 | 78 | 61 | 57 | 30.18 | ESE | 1 | 0.00 |
| 58 | 05/15 | 15:00 | 78 | 60 | 55 | 30.20 | SE | 0 | 0.00 |
| 59 | 05/15 | 14:00 | 77 | 64 | 65 | 30.21 | E | 3 | 0.00 |
| 60 | 05/15 | 13:00 | 75 | 64 | 71 | 30.23 | ENE | 3 | 0.00 |
| 61 | 05/15 | 12:00 | 73 | 65 | 77 | 30.24 | NNE | 5 | 0.00 |
| 62 | 05/15 | 11:00 | 71 | 64 | 79 | 30.24 | NE | 2 | 0.00 |
| 63 | 05/15 | 10:00 | 69 | 64 | 87 | 30.24 | SSE | 3 | 0.00 |
| 64 | 05/15 | 09:00 | 67 | 66 | 98 | 30.24 | S | 1 | 0.00 |
| 65 | 05/15 | 08:00 | 65 | 64 | 100 | 30.24 | ESE | 3 | 0.00 |
| 66 | 05/15 | 07:00 | 64 | 63 | 100 | 30.23 | N | 0 | 0.00 |
| 67 | 05/15 | 06:00 | 64 | 63 | 100 | 30.20 | NNE | 0 | 0.00 |
| 68 | 05/15 | 05:00 | 64 | 63 | 100 | 30.19 | NNE | 0 | 0.00 |
| 69 | 05/15 | 04:00 | 63 | 63 | 100 | 30.19 | S | 2 | 0.01 |
| 70 | 05/15 | 03:00 | 64 | 63 | 100 | 30.18 | S | 0 | 0.00 |
| 71 | 05/15 | 02:00 | 63 | 63 | 100 | 30.19 | S | 0 | 0.00 |
| 72 | 05/15 | 01:00 | 64 | 63 | 99 | 30.18 | S | 1 | 0.00 |
| 73 | 05/15 | 00:00 | 63 | 62 | 98 | 30.16 | SSW | 2 | -0.01 |
| 74 | 05/14 | 23:00 | 64 | 62 | 96 | 30.16 | SW | 3 | 0.35 |